createdAt,value
2018-09-17T00:01:27.827Z,7.4
2018-09-17T00:11:29.442Z,6.8
2018-09-17T00:21:26.751Z,6.7
2018-09-17T00:31:27.143Z,6.8
2018-09-17T00:41:27.677Z,7.5
2018-09-17T00:51:26.449Z,10.6
2018-09-17T01:01:26.780Z,6.3
2018-09-17T01:11:28.178Z,7.0
2018-09-17T01:21:26.307Z,7.5
2018-09-17T01:31:25.949Z,7.5
2018-09-17T01:41:28.423Z,8.0
2018-09-17T01:51:27.022Z,7.5
2018-09-17T02:01:25.963Z,7.0
2018-09-17T02:11:28.746Z,6.4
2018-09-17T02:21:25.903Z,7.7
2018-09-17T02:31:25.857Z,7.7
2018-09-17T02:41:28.387Z,8.2
2018-09-17T02:53:54.172Z,8.4
2018-09-17T03:01:26.963Z,7.2
2018-09-17T03:11:27.928Z,7.8
2018-09-17T03:21:26.203Z,6.9
2018-09-17T03:31:26.032Z,7.3
2018-09-17T03:41:26.797Z,7.1
2018-09-17T03:51:26.560Z,7.5
2018-09-17T04:01:26.991Z,7.7
2018-09-17T04:11:26.411Z,7.3
2018-09-17T04:21:26.376Z,8.2
2018-09-17T04:31:26.045Z,8.5
2018-09-17T04:41:26.290Z,8.6
2018-09-17T04:51:26.324Z,8.5
2018-09-17T05:01:27.686Z,9.5
2018-09-17T05:11:26.706Z,9.0
2018-09-17T05:21:26.664Z,9.6
2018-09-17T05:31:27.123Z,8.5
2018-09-17T05:41:26.109Z,8.7
2018-09-17T05:51:26.663Z,9.2
2018-09-17T06:01:26.752Z,10.0
2018-09-17T06:11:26.619Z,10.4
2018-09-17T06:21:27.165Z,14.4
2018-09-17T06:31:26.266Z,11.2
2018-09-17T06:41:26.499Z,14.0
2018-09-17T06:51:26.853Z,12.2
2018-09-17T07:01:26.651Z,12.6
2018-09-17T07:11:27.529Z,13.9
2018-09-17T07:21:26.285Z,13.4
2018-09-17T07:31:26.534Z,11.1
2018-09-17T07:41:26.466Z,8.8
2018-09-17T07:51:29.582Z,8.5
2018-09-17T08:01:28.832Z,8.2
2018-09-17T08:11:27.015Z,6.8
2018-09-17T08:21:26.567Z,7.7
2018-09-17T08:31:25.469Z,7.8
2018-09-17T08:41:26.024Z,8.3
2018-09-17T08:51:26.635Z,7.4
2018-09-17T09:01:25.602Z,7.0
2018-09-17T09:11:27.014Z,7.9
2018-09-17T09:21:25.124Z,7.2
2018-09-17T09:31:26.632Z,7.3
2018-09-17T09:41:25.533Z,6.9
2018-09-17T09:51:26.401Z,6.5
2018-09-17T10:01:26.823Z,6.5
2018-09-17T10:11:27.579Z,5.8
2018-09-17T10:21:26.133Z,5.4
2018-09-17T10:31:26.682Z,5.0
2018-09-17T10:41:26.027Z,4.7
2018-09-17T10:51:29.446Z,3.8
2018-09-17T11:01:27.674Z,3.7
2018-09-17T11:11:25.711Z,4.3
2018-09-17T11:21:26.286Z,4.0
2018-09-17T11:31:25.309Z,4.0
2018-09-17T11:41:27.797Z,4.3
2018-09-17T11:51:26.333Z,4.2
2018-09-17T12:01:27.548Z,4.4
2018-09-17T12:11:26.761Z,4.3
2018-09-17T12:21:26.318Z,4.3
2018-09-17T12:31:26.296Z,5.3
2018-09-17T12:41:25.285Z,4.1
2018-09-17T12:51:26.357Z,4.0
2018-09-17T13:01:27.235Z,4.2
2018-09-17T13:11:26.390Z,5.0
2018-09-17T13:21:26.676Z,4.0
2018-09-17T13:31:31.379Z,4.1
2018-09-17T13:41:26.075Z,4.4
2018-09-17T13:51:25.616Z,4.9
2018-09-17T14:01:26.106Z,4.5
2018-09-17T14:11:25.253Z,4.9
2018-09-17T14:21:25.451Z,4.5
2018-09-17T14:31:25.854Z,4.8
2018-09-17T14:41:26.017Z,5.2
2018-09-17T14:51:26.325Z,4.5
2018-09-17T15:01:26.099Z,5.0
2018-09-17T15:11:26.804Z,5.0
2018-09-17T15:21:26.004Z,5.2
2018-09-17T15:31:25.914Z,6.3
2018-09-17T15:41:26.372Z,5.3
2018-09-17T15:51:27.348Z,5.3
2018-09-17T16:01:25.406Z,5.9
2018-09-17T16:11:25.974Z,7.3
2018-09-17T16:21:25.551Z,7.4
2018-09-17T16:31:26.023Z,7.8
2018-09-17T16:41:25.045Z,7.7
2018-09-17T16:51:25.597Z,8.1
2018-09-17T17:01:26.695Z,7.8
2018-09-17T17:11:26.616Z,9.1
2018-09-17T17:21:25.728Z,7.2
2018-09-17T17:31:26.492Z,7.6
2018-09-17T17:41:25.459Z,7.1
2018-09-17T17:51:25.347Z,7.4
2018-09-17T18:01:26.290Z,8.2
2018-09-17T18:11:26.465Z,8.5
2018-09-17T18:21:26.116Z,9.0
2018-09-17T18:31:25.882Z,9.2
2018-09-17T18:41:27.538Z,9.1
2018-09-17T18:51:28.555Z,11.4
2018-09-17T19:01:25.456Z,11.2
2018-09-17T19:11:25.637Z,11.5
2018-09-17T19:21:25.540Z,12.9
2018-09-17T19:31:26.660Z,13.4
2018-09-17T19:41:25.535Z,13.7
2018-09-17T19:51:26.052Z,13.4
2018-09-17T20:01:25.236Z,13.5
2018-09-17T20:11:25.314Z,15.2
2018-09-17T20:21:27.746Z,14.5
2018-09-17T20:31:26.742Z,13.2
2018-09-17T20:41:26.519Z,14.2
2018-09-17T20:51:27.525Z,13.9
2018-09-17T21:01:26.527Z,13.6
2018-09-17T21:11:25.261Z,13.2
2018-09-17T21:21:26.998Z,13.1
2018-09-17T21:31:28.286Z,14.5
2018-09-17T21:41:25.145Z,13.9
2018-09-17T21:51:24.948Z,12.7
2018-09-17T22:01:26.776Z,13.8
2018-09-17T22:11:27.715Z,13.9
2018-09-17T22:21:25.830Z,13.8
2018-09-17T22:31:28.140Z,13.9
2018-09-17T22:41:25.625Z,12.9
2018-09-17T22:51:25.068Z,13.0
2018-09-17T23:01:25.804Z,13.1
2018-09-17T23:11:26.812Z,14.1
2018-09-17T23:21:26.276Z,13.8
2018-09-17T23:31:25.298Z,12.8
2018-09-17T23:41:26.114Z,13.4
2018-09-17T23:51:27.008Z,12.7
